Time;durP1;ratioP1;P1;durP2;ratioP2;P2;SDS_P1;SDS_P2;PMS_P1;PMS_P2;Temp;Humidity;BMP_temperature;BMP_pressure;BME280_temperature;BME280_humidity;BME280_pressure;Samples;Min_cycle;Max_cycle;Signal;HPM_P1;HPM_P2
2021/04/25 00:01:42;;;;;;;15.30;8.57;;;;;;;5.38;50.61;100848.71;1602926;88;26374;-84
2021/04/25 00:04:09;;;;;;;15.60;8.98;;;;;;;5.36;50.73;100842.00;1607270;87;25432;-84
2021/04/25 00:06:37;;;;;;;17.07;9.00;;;;;;;5.30;50.77;100839.41;1607807;87;25291;-84
2021/04/25 00:09:04;;;;;;;14.15;8.95;;;;;;;5.27;51.06;100836.58;1592148;87;25628;-84
2021/04/25 00:11:30;;;;;;;14.90;8.10;;;;;;;5.30;51.19;100838.11;1582507;89;25768;-84
2021/04/25 00:13:55;;;;;;;17.13;9.23;;;;;;;5.26;51.17;100836.20;1582523;89;25495;-84
2021/04/25 00:16:22;;;;;;;15.13;8.63;;;;;;;5.25;51.29;100832.45;1582455;89;25528;-84
2021/04/25 00:18:49;;;;;;;16.35;9.08;;;;;;;5.32;51.36;100834.46;1592617;87;25798;-83
2021/04/25 00:21:17;;;;;;;25.88;10.85;;;;;;;5.30;51.28;100831.16;1606346;87;25305;-84
2021/04/25 00:23:42;;;;;;;20.30;10.65;;;;;;;5.23;51.34;100825.27;1606240;87;25320;-83
2021/04/25 00:26:08;;;;;;;19.80;9.87;;;;;;;5.12;51.27;100827.39;1606403;87;26153;-83
2021/04/25 00:28:34;;;;;;;16.90;9.80;;;;;;;5.05;51.50;100823.16;1606351;88;25277;-83
2021/04/25 00:31:00;;;;;;;21.07;9.70;;;;;;;5.01;51.60;100820.91;1607098;87;25727;-83
2021/04/25 00:33:25;;;;;;;17.93;8.97;;;;;;;5.05;51.77;100811.98;1607759;87;25678;-83
2021/04/25 00:35:51;;;;;;;15.97;9.53;;;;;;;5.07;51.70;100818.70;1607820;87;26531;-83
2021/04/25 00:38:17;;;;;;;18.93;8.67;;;;;;;5.03;51.80;100814.67;1607739;87;25395;-83
2021/04/25 00:40:43;;;;;;;15.67;8.83;;;;;;;4.96;51.81;100818.67;1607708;87;25330;-83
2021/04/25 00:43:09;;;;;;;19.30;8.83;;;;;;;4.93;51.96;100807.73;1607901;87;25374;-83
2021/04/25 00:45:35;;;;;;;17.77;8.17;;;;;;;4.93;52.07;100816.80;1607243;87;28871;-83
2021/04/25 00:48:01;;;;;;;16.00;7.63;;;;;;;4.87;52.12;100815.02;1606549;88;27943;-82
2021/04/25 00:50:27;;;;;;;16.33;8.77;;;;;;;4.87;52.26;100818.09;1603642;88;25444;-82
2021/04/25 00:52:58;;;;;;;14.55;7.58;;;;;;;4.86;52.28;100816.45;1602625;88;25462;-83
2021/04/25 00:55:28;;;;;;;15.70;8.30;;;;;;;4.87;52.58;100815.50;1603178;88;25811;-82
2021/04/25 00:57:56;;;;;;;18.80;8.65;;;;;;;4.87;52.58;100815.50;1602455;88;25347;-82
2021/04/25 01:00:23;;;;;;;17.57;8.63;;;;;;;4.88;52.44;100815.84;1603120;88;25697;-82
2021/04/25 01:02:49;;;;;;;15.15;8.20;;;;;;;4.87;52.39;100815.02;1605488;87;25725;-82
2021/04/25 01:05:17;;;;;;;16.67;8.30;;;;;;;4.93;52.53;100803.84;1607320;87;25374;-82
2021/04/25 01:07:44;;;;;;;15.28;8.20;;;;;;;5.00;52.28;100810.21;1607725;87;25324;-82
2021/04/25 01:10:12;;;;;;;18.20;9.15;;;;;;;5.00;52.14;100807.63;1607622;87;25292;-82
2021/04/25 01:12:40;;;;;;;14.35;8.18;;;;;;;5.03;52.39;100809.97;1607735;87;25327;-82
2021/04/25 01:15:09;;;;;;;14.15;8.23;;;;;;;5.06;52.27;100808.44;1607563;87;25756;-83
2021/04/25 01:17:42;;;;;;;19.52;8.05;;;;;;;5.07;52.17;100801.00;1607937;87;25905;-83
2021/04/25 01:20:11;;;;;;;15.98;8.65;;;;;;;5.11;52.51;100799.36;1607733;87;25742;-83
2021/04/25 01:22:37;;;;;;;14.98;7.87;;;;;;;5.15;52.77;100801.72;1607665;87;25453;-83
2021/04/25 01:25:06;;;;;;;20.17;8.77;;;;;;;5.19;52.99;100794.89;1607753;87;26840;-83
2021/04/25 01:27:32;;;;;;;16.82;8.00;;;;;;;5.25;53.13;100798.30;1607849;87;25851;-83
2021/04/25 01:29:59;;;;;;;12.93;7.60;;;;;;;5.29;53.30;100794.98;1607357;87;25309;-84
2021/04/25 01:32:25;;;;;;;17.67;8.35;;;;;;;5.31;53.43;100792.63;1606450;87;26016;-84
2021/04/25 01:34:51;;;;;;;14.07;7.37;;;;;;;5.31;53.49;100783.55;1606495;88;25450;-83
2021/04/25 01:37:17;;;;;;;16.97;7.97;;;;;;;5.33;53.72;100782.97;1606497;87;26746;-85
2021/04/25 01:39:43;;;;;;;14.70;8.33;;;;;;;5.34;53.95;100779.90;1606520;87;25397;-82
2021/04/25 01:42:09;;;;;;;15.40;8.27;;;;;;;5.31;54.10;100774.48;1606445;87;25400;-82
2021/04/25 01:44:35;;;;;;;19.90;8.18;;;;;;;5.30;54.38;100774.62;1606522;87;25270;-82
2021/04/25 01:47:00;;;;;;;15.83;7.60;;;;;;;5.30;54.68;100770.25;1606490;87;28229;-82
2021/04/25 01:49:26;;;;;;;19.17;13.67;;;;;;;5.25;54.94;100775.45;1605156;87;26556;-82
2021/04/25 01:51:52;;;;;;;20.90;12.53;;;;;;;5.15;54.30;100775.33;1602947;88;25405;-84
2021/04/25 01:54:18;;;;;;;22.57;12.17;;;;;;;5.14;54.52;100772.39;1602876;88;25684;-84
2021/04/25 01:56:44;;;;;;;18.10;10.13;;;;;;;5.17;54.79;100768.75;1602961;88;25754;-83
2021/04/25 01:59:09;;;;;;;19.20;9.63;;;;;;;5.19;55.11;100772.87;1603325;88;27903;-80
2021/04/25 02:01:35;;;;;;;17.13;10.13;;;;;;;5.17;55.42;100772.63;1606575;88;25582;-82
2021/04/25 02:04:01;;;;;;;15.57;9.70;;;;;;;5.12;55.26;100772.50;1607626;87;25643;-82
2021/04/25 02:06:27;;;;;;;17.53;10.00;;;;;;;5.12;55.32;100771.69;1607833;87;25748;-83
2021/04/25 02:08:53;;;;;;;16.30;9.43;;;;;;;5.15;55.61;100763.67;1607857;87;25887;-85
2021/04/25 02:11:19;;;;;;;20.37;10.60;;;;;;;5.16;55.84;100768.41;1607879;87;28933;-85
2021/04/25 02:13:44;;;;;;;15.80;9.87;;;;;;;5.12;55.94;100766.02;1607601;87;27368;-84
2021/04/25 02:16:13;;;;;;;15.07;9.47;;;;;;;5.14;56.09;100756.84;1607934;87;25404;-85
2021/04/25 02:18:38;;;;;;;17.95;9.45;;;;;;;5.14;56.26;100757.33;1607716;87;25642;-85
2021/04/25 02:21:05;;;;;;;17.77;10.10;;;;;;;5.12;55.98;100757.44;1607842;87;25795;-85
2021/04/25 02:23:31;;;;;;;17.57;10.05;;;;;;;5.10;56.15;100757.57;1607882;87;25828;-85
2021/04/25 02:25:57;;;;;;;20.37;11.27;;;;;;;5.06;56.12;100760.51;1584141;88;27807;-84
2021/04/25 02:28:23;;;;;;;19.25;10.15;;;;;;;5.02;56.32;100757.80;1607711;87;25747;-83
2021/04/25 02:30:49;;;;;;;17.90;9.47;;;;;;;4.99;56.45;100763.22;1606328;87;25387;-84
2021/04/25 02:33:15;;;;;;;15.50;8.53;;;;;;;4.92;56.28;100769.83;1606518;87;25491;-84
2021/04/25 02:35:41;;;;;;;18.37;10.20;;;;;;;4.85;56.47;100765.09;1606506;87;25432;-84
2021/04/25 02:38:06;;;;;;;16.70;9.38;;;;;;;4.78;56.75;100763.13;1606496;87;25284;-84
2021/04/25 02:40:35;;;;;;;17.30;9.93;;;;;;;4.82;56.98;100765.81;1606484;87;25407;-83
2021/04/25 02:43:03;;;;;;;19.12;10.23;;;;;;;4.84;56.74;100775.11;1606350;87;25775;-83
2021/04/25 02:45:30;;;;;;;19.73;10.00;;;;;;;4.84;56.51;100771.23;1606497;87;25395;-83
2021/04/25 02:48:05;;;;;;;22.42;11.10;;;;;;;4.86;56.14;100768.53;1606368;87;25414;-84
2021/04/25 02:50:39;;;;;;;19.45;10.45;;;;;;;4.73;55.80;100780.30;1602880;88;25246;-83
2021/04/25 02:53:08;;;;;;;20.97;10.82;;;;;;;4.62;55.79;100780.29;1602260;88;26413;-83
2021/04/25 02:55:35;;;;;;;20.82;11.30;;;;;;;4.63;55.56;100772.39;1602789;88;25242;-83
2021/04/25 02:58:01;;;;;;;19.65;10.53;;;;;;;4.68;55.62;100770.75;1603011;87;26031;-83
2021/04/25 03:00:29;;;;;;;19.80;10.00;;;;;;;4.72;55.56;100762.27;1606398;88;29603;-83
2021/04/25 03:02:57;;;;;;;16.75;9.35;;;;;;;4.72;55.20;100768.75;1606412;87;25677;-84
2021/04/25 03:05:24;;;;;;;18.35;10.10;;;;;;;4.74;55.24;100765.10;1607572;87;25659;-83
2021/04/25 03:07:51;;;;;;;16.05;9.98;;;;;;;4.76;55.29;100769.70;1607722;87;25700;-84
2021/04/25 03:10:19;;;;;;;22.07;10.48;;;;;;;4.75;55.57;100760.77;1607750;87;25408;-84
2021/04/25 03:12:46;;;;;;;18.37;10.03;;;;;;;4.73;55.90;100759.58;1607655;87;25795;-83
2021/04/25 03:15:15;;;;;;;17.60;10.28;;;;;;;4.72;56.15;100764.86;1607591;87;25421;-84
2021/04/25 03:17:41;;;;;;;21.40;10.55;;;;;;;4.70;56.18;100762.88;1606416;87;26539;-83
2021/04/25 03:20:10;;;;;;;22.50;10.13;;;;;;;4.68;56.37;100763.80;1606360;87;25319;-83
2021/04/25 03:22:37;;;;;;;18.30;10.68;;;;;;;4.63;56.50;100763.80;1606433;87;25736;-83
2021/04/25 03:25:06;;;;;;;20.85;11.33;;;;;;;4.61;56.70;100769.56;1606364;87;25449;-83
2021/04/25 03:27:32;;;;;;;23.62;10.90;;;;;;;4.60;56.72;100769.22;1606378;87;25416;-82
2021/04/25 03:29:58;;;;;;;22.32;11.55;;;;;;;4.54;56.86;100770.51;1606400;87;25939;-82
2021/04/25 03:32:25;;;;;;;24.07;12.60;;;;;;;4.50;56.76;100764.38;1607297;87;25713;-82
2021/04/25 03:35:15;;;;;;;28.77;16.02;;;;;;;4.47;56.85;100765.42;1669934;84;25452;-70
2021/04/25 03:37:42;;;;;;;55.05;27.02;;;;;;;4.48;57.07;100761.10;1669173;84;25999;-71
2021/04/25 03:40:11;;;;;;;49.15;25.65;;;;;;;4.48;56.92;100764.51;1669266;84;25804;-72
2021/04/25 03:42:38;;;;;;;43.10;22.02;;;;;;;4.48;57.00;100760.62;1669383;84;25713;-71
2021/04/25 03:45:07;;;;;;;37.58;20.43;;;;;;;4.48;57.28;100758.03;1669052;84;25946;-71
2021/04/25 03:47:33;;;;;;;38.98;19.80;;;;;;;4.48;57.61;100760.62;1668809;84;25946;-71
2021/04/25 03:49:59;;;;;;;31.13;16.60;;;;;;;4.53;57.77;100764.14;1669331;84;27281;-71
2021/04/25 03:52:25;;;;;;;28.17;15.80;;;;;;;4.55;57.80;100765.67;1669011;84;25800;-71
2021/04/25 03:54:50;;;;;;;30.43;15.13;;;;;;;4.57;57.92;100766.39;1669142;84;26050;-71
2021/04/25 03:57:16;;;;;;;27.07;15.10;;;;;;;4.61;58.08;100768.27;1668489;84;25917;-71
2021/04/25 03:59:42;;;;;;;27.63;14.23;;;;;;;4.58;58.25;100766.77;1679094;83;25402;-71
2021/04/25 04:02:08;;;;;;;27.23;13.40;;;;;;;4.52;58.25;100771.08;1684793;83;30175;-72
2021/04/25 04:04:34;;;;;;;29.43;13.87;;;;;;;4.53;58.21;100768.87;1685378;83;26020;-71
2021/04/25 04:07:00;;;;;;;26.12;12.88;;;;;;;4.52;58.41;100768.97;1686487;83;26461;-71
2021/04/25 04:09:25;;;;;;;25.13;14.17;;;;;;;4.55;58.40;100768.27;1684699;83;25388;-71
2021/04/25 04:11:51;;;;;;;24.90;15.03;;;;;;;4.51;58.01;100773.33;1685389;83;25387;-71
2021/04/25 04:14:17;;;;;;;25.93;13.50;;;;;;;4.53;58.05;100768.02;1684693;83;30190;-72
2021/04/25 04:16:42;;;;;;;21.30;12.47;;;;;;;4.55;58.03;100773.44;1685772;83;25924;-71
2021/04/25 04:19:08;;;;;;;38.60;23.67;;;;;;;4.53;57.85;100770.61;1685333;83;25735;-71
2021/04/25 04:21:34;;;;;;;51.47;30.87;;;;;;;4.50;57.89;100770.40;1685320;83;25750;-72
2021/04/25 04:24:00;;;;;;;64.87;40.43;;;;;;;4.52;57.96;100775.44;1685680;83;25829;-71
2021/04/25 04:26:27;;;;;;;60.45;39.50;;;;;;;4.48;57.96;100769.69;1662878;84;43912;-71
2021/04/25 04:28:53;;;;;;;57.65;35.70;;;;;;;4.46;57.96;100776.73;1686321;83;25553;-71
2021/04/25 04:31:18;;;;;;;41.20;28.63;;;;;;;4.43;57.85;100776.48;1684979;83;25749;-76
2021/04/25 04:33:44;;;;;;;37.03;26.70;;;;;;;4.41;57.85;100780.13;1686334;83;25806;-76
2021/04/25 04:36:10;;;;;;;33.80;23.77;;;;;;;4.40;57.77;100775.91;1685939;83;25881;-76
2021/04/25 04:38:36;;;;;;;28.93;17.47;;;;;;;4.36;57.74;100777.05;1684837;83;27181;-76
2021/04/25 04:41:02;;;;;;;30.10;19.03;;;;;;;4.36;57.73;100779.64;1685189;83;25287;-76
2021/04/25 04:43:28;;;;;;;25.37;16.97;;;;;;;4.35;57.82;100776.23;1684886;83;25729;-77
2021/04/25 04:45:54;;;;;;;28.33;17.37;;;;;;;4.34;57.85;100778.48;1685350;83;25476;-76
2021/04/25 04:48:21;;;;;;;27.07;16.77;;;;;;;4.33;57.84;100778.58;1685813;83;25638;-76
2021/04/25 04:50:47;;;;;;;28.50;17.15;;;;;;;4.31;57.91;100776.13;1685313;83;25767;-71
2021/04/25 04:53:13;;;;;;;29.67;17.75;;;;;;;4.34;57.77;100775.08;1684752;83;25772;-71
2021/04/25 04:55:39;;;;;;;38.03;17.97;;;;;;;4.32;57.64;100775.17;1685458;83;25761;-71
2021/04/25 04:58:05;;;;;;;42.62;25.20;;;;;;;4.33;57.77;100775.99;1684757;83;25768;-71
2021/04/25 05:00:31;;;;;;;56.60;33.70;;;;;;;4.36;57.85;100775.77;1684630;83;25298;-71
2021/04/25 05:02:57;;;;;;;63.80;36.57;;;;;;;4.38;57.82;100779.06;1663086;84;26933;-71
2021/04/25 05:05:23;;;;;;;42.27;22.30;;;;;;;4.40;57.81;100781.08;1685434;83;25338;-71
2021/04/25 05:07:49;;;;;;;30.27;16.47;;;;;;;4.40;57.57;100784.48;1685104;83;25726;-71
2021/04/25 05:10:15;;;;;;;29.10;15.13;;;;;;;4.41;57.14;100782.72;1684971;83;25882;-71
2021/04/25 05:12:41;;;;;;;22.13;11.10;;;;;;;4.44;57.29;100785.89;1685389;83;27770;-71
2021/04/25 05:15:07;;;;;;;20.10;10.57;;;;;;;4.51;57.17;100786.27;1685115;83;26314;-71
2021/04/25 05:17:34;;;;;;;15.90;9.08;;;;;;;4.55;57.05;100787.67;1684907;83;25876;-71
2021/04/25 05:19:59;;;;;;;16.25;8.53;;;;;;;4.48;56.84;100788.27;1684401;83;25639;-71
2021/04/25 05:22:25;;;;;;;15.67;8.60;;;;;;;4.44;56.79;100787.66;1685319;83;26670;-71
2021/04/25 05:24:51;;;;;;;13.40;8.33;;;;;;;4.47;56.98;100780.95;1684616;83;25677;-71
2021/04/25 05:27:17;;;;;;;15.37;8.30;;;;;;;4.53;57.08;100786.98;1685484;83;26833;-71
2021/04/25 05:29:43;;;;;;;16.77;8.97;;;;;;;4.60;57.20;100784.27;1685399;83;25692;-71
2021/04/25 05:32:09;;;;;;;18.10;8.10;;;;;;;4.66;57.24;100782.54;1684417;83;26391;-71
2021/04/25 05:34:35;;;;;;;13.00;6.83;;;;;;;4.73;57.05;100776.89;1684979;83;25396;-71
2021/04/25 05:37:02;;;;;;;16.62;7.22;;;;;;;4.80;56.07;100779.34;1685741;83;25737;-71
2021/04/25 05:39:28;;;;;;;13.25;6.87;;;;;;;4.77;56.10;100776.98;1684733;83;25731;-71
2021/04/25 05:41:54;;;;;;;11.80;6.73;;;;;;;4.77;55.90;100774.41;1685016;83;25788;-71
2021/04/25 05:44:20;;;;;;;12.17;6.80;;;;;;;4.81;55.75;100779.72;1685928;83;25833;-71
2021/04/25 05:46:45;;;;;;;14.13;6.93;;;;;;;4.80;55.69;100779.34;1684416;83;25862;-76
2021/04/25 05:49:11;;;;;;;12.23;6.63;;;;;;;4.84;55.94;100779.00;1684828;83;25811;-76
2021/04/25 05:51:37;;;;;;;11.90;6.77;;;;;;;4.90;55.54;100782.41;1684553;83;27153;-76
2021/04/25 05:54:03;;;;;;;11.95;6.60;;;;;;;5.01;55.18;100786.77;1685112;83;25836;-76
2021/04/25 05:56:31;;;;;;;11.88;7.15;;;;;;;5.10;54.61;100782.63;1684560;83;26415;-76
2021/04/25 05:58:58;;;;;;;12.93;7.20;;;;;;;5.17;54.83;100778.63;1684593;83;25282;-76
2021/04/25 06:01:24;;;;;;;13.83;6.72;;;;;;;5.25;54.16;100784.03;1631324;86;25839;-76
2021/04/25 06:03:50;;;;;;;9.35;5.75;;;;;;;5.31;54.28;100787.44;1685479;83;25825;-76
2021/04/25 06:06:16;;;;;;;12.27;4.77;;;;;;;5.42;53.37;100781.41;1630925;86;26911;-76
2021/04/25 06:08:42;;;;;;;12.43;6.17;;;;;;;5.49;52.87;100779.99;1684234;83;25553;-76
2021/04/25 06:11:09;;;;;;;10.20;5.97;;;;;;;5.55;52.77;100778.68;1640890;85;25857;-76
2021/04/25 06:13:36;;;;;;;11.43;5.75;;;;;;;5.62;53.01;100777.70;1631236;86;26796;-76
2021/04/25 06:16:02;;;;;;;9.43;4.80;;;;;;;5.72;52.90;100776.03;1640360;85;25423;-76
2021/04/25 06:18:27;;;;;;;7.37;4.28;;;;;;;5.80;52.29;100774.94;1641517;85;25990;-71
2021/04/25 06:20:54;;;;;;;4.70;2.60;;;;;;;5.93;50.41;100778.67;1632119;86;25768;-71
2021/04/25 06:23:20;;;;;;;5.92;3.30;;;;;;;5.99;47.44;100770.41;1685249;83;25781;-71
2021/04/25 06:25:46;;;;;;;6.60;2.98;;;;;;;6.05;48.72;100766.49;1631121;86;25371;-71
2021/04/25 06:28:13;;;;;;;3.47;2.00;;;;;;;6.13;48.43;100768.80;1684822;83;30080;-71
2021/04/25 06:30:39;;;;;;;4.00;2.17;;;;;;;6.20;45.66;100763.95;1685322;83;25708;-71
2021/04/25 06:33:05;;;;;;;5.00;2.20;;;;;;;6.22;46.62;100765.95;1685488;83;25884;-71
2021/04/25 06:35:31;;;;;;;5.92;2.67;;;;;;;6.25;45.13;100765.69;1685842;83;26416;-71
2021/04/25 06:37:57;;;;;;;4.33;2.43;;;;;;;6.28;45.14;100768.03;1685661;83;26619;-71
2021/04/25 06:40:23;;;;;;;5.53;2.53;;;;;;;6.35;44.84;100769.14;1644041;85;32137;-72
2021/04/25 06:42:49;;;;;;;4.45;2.37;;;;;;;6.36;44.43;100764.32;1648028;85;25723;-76
2021/04/25 06:45:20;;;;;;;4.85;2.37;;;;;;;6.35;43.77;100766.55;1645164;85;25761;-76
2021/04/25 06:47:48;;;;;;;4.55;2.70;;;;;;;6.37;43.19;100763.36;1659151;84;25886;-76
2021/04/25 06:50:15;;;;;;;3.17;2.15;;;;;;;6.41;44.24;100766.06;1685445;83;26622;-76
2021/04/25 06:52:44;;;;;;;4.40;2.67;;;;;;;6.52;44.34;100765.62;1663448;83;26534;-76
2021/04/25 06:55:15;;;;;;;8.75;3.05;;;;;;;6.61;43.66;100773.95;1684707;83;25922;-76
2021/04/25 06:57:45;;;;;;;4.15;2.60;;;;;;;6.67;43.16;100773.43;1684917;83;26350;-76
2021/04/25 07:00:13;;;;;;;6.33;2.12;;;;;;;6.67;43.43;100772.95;1685697;83;26702;-76
2021/04/25 07:02:39;;;;;;;4.00;2.30;;;;;;;6.70;42.82;100773.17;1684850;83;26017;-76
2021/04/25 07:05:06;;;;;;;3.07;1.93;;;;;;;6.77;42.83;100765.22;1664308;84;31134;-76
2021/04/25 07:07:33;;;;;;;3.33;2.10;;;;;;;6.85;41.27;100767.98;1685424;83;25729;-76
2021/04/25 07:10:00;;;;;;;3.05;2.10;;;;;;;6.87;41.28;100771.28;1684657;83;25712;-76
2021/04/25 07:12:27;;;;;;;4.47;2.50;;;;;;;6.91;42.44;100769.23;1684986;83;25340;-76
2021/04/25 07:14:53;;;;;;;5.90;2.80;;;;;;;6.94;42.43;100770.27;1684849;83;26675;-77
2021/04/25 07:17:20;;;;;;;4.63;2.37;;;;;;;7.00;42.72;100771.03;1685387;83;33149;-77
2021/04/25 07:19:45;;;;;;;4.58;2.60;;;;;;;7.09;42.25;100765.52;1684901;83;25822;-77
2021/04/25 07:22:11;;;;;;;5.37;2.50;;;;;;;7.13;40.96;100767.39;1684940;83;25934;-77
2021/04/25 07:24:37;;;;;;;4.30;2.53;;;;;;;7.16;41.14;100772.32;1631447;86;26579;-72
2021/04/25 07:27:04;;;;;;;6.10;2.83;;;;;;;7.15;39.89;100773.26;1684737;83;26656;-72
2021/04/25 07:29:30;;;;;;;5.42;2.50;;;;;;;7.08;41.17;100773.80;1685570;83;25872;-72
2021/04/25 07:31:58;;;;;;;5.20;2.50;;;;;;;7.09;41.99;100766.81;1685809;83;26576;-72
2021/04/25 07:34:25;;;;;;;3.65;1.95;;;;;;;7.10;41.35;100768.00;1630709;86;25707;-77
2021/04/25 07:36:53;;;;;;;5.67;2.70;;;;;;;7.10;40.93;100768.00;1686246;83;25785;-72
2021/04/25 07:39:20;;;;;;;5.08;2.55;;;;;;;7.18;40.65;100768.64;1615318;86;25820;-72
2021/04/25 07:41:47;;;;;;;5.70;2.62;;;;;;;7.26;40.27;100771.88;1686166;83;26412;-72
2021/04/25 07:44:13;;;;;;;4.83;2.25;;;;;;;7.30;40.64;100768.04;1686980;83;25723;-77
2021/04/25 07:46:39;;;;;;;3.08;1.95;;;;;;;7.36;40.42;100767.98;1688219;83;25839;-77
2021/04/25 07:49:05;;;;;;;5.20;2.37;;;;;;;7.37;40.40;100763.96;1686836;83;25851;-77
2021/04/25 07:51:31;;;;;;;3.47;2.20;;;;;;;7.34;40.31;100767.65;1685918;83;25740;-72
2021/04/25 07:53:59;;;;;;;4.17;2.47;;;;;;;7.38;39.54;100768.19;1631331;86;33158;-71
2021/04/25 07:56:26;;;;;;;3.50;2.15;;;;;;;7.43;39.51;100772.52;1664249;84;25887;-71
2021/04/25 07:58:52;;;;;;;5.00;2.10;;;;;;;7.51;40.04;100764.05;1685945;83;25768;-72
2021/04/25 08:01:18;;;;;;;4.47;2.30;;;;;;;7.52;38.73;100756.58;1685981;83;25758;-72
2021/04/25 08:03:44;;;;;;;3.33;1.90;;;;;;;7.54;39.26;100756.79;1687368;83;25804;-72
2021/04/25 08:06:10;;;;;;;3.63;1.93;;;;;;;7.64;38.59;100751.61;1685871;83;30090;-72
2021/04/25 08:08:36;;;;;;;5.67;2.30;;;;;;;7.75;39.08;100751.47;1685756;83;30929;-72
2021/04/25 08:11:02;;;;;;;6.40;2.23;;;;;;;7.77;39.51;100756.06;1685872;83;26254;-72
2021/04/25 08:13:28;;;;;;;6.15;2.25;;;;;;;7.82;39.51;100756.12;1631944;86;25397;-72
2021/04/25 08:15:54;;;;;;;3.67;1.97;;;;;;;7.85;38.97;100756.66;1684390;83;25827;-72
2021/04/25 08:18:20;;;;;;;3.43;1.87;;;;;;;7.86;36.91;100758.80;1685550;83;32162;-77
2021/04/25 08:20:46;;;;;;;2.87;1.95;;;;;;;7.86;37.80;100758.31;1686394;83;25851;-77
2021/04/25 08:23:12;;;;;;;3.23;1.90;;;;;;;7.76;36.76;100754.89;1682831;83;25721;-79
2021/04/25 08:25:38;;;;;;;5.20;1.90;;;;;;;7.81;38.25;100753.19;1663378;83;25386;-80
2021/04/25 08:28:04;;;;;;;2.95;1.85;;;;;;;7.84;37.53;100749.00;1686009;83;25774;-81
2021/04/25 08:30:30;;;;;;;2.85;1.77;;;;;;;7.88;37.46;100754.27;1685507;83;25819;-81
2021/04/25 08:32:56;;;;;;;3.67;1.60;;;;;;;7.97;36.78;100754.27;1686268;83;32331;-80
2021/04/25 08:35:23;;;;;;;2.50;1.70;;;;;;;8.05;35.11;100752.73;1685421;83;25760;-83
2021/04/25 08:37:49;;;;;;;2.95;1.80;;;;;;;8.01;35.45;100750.90;1685798;83;25776;-76
2021/04/25 08:40:15;;;;;;;5.70;2.10;;;;;;;7.97;36.33;100752.15;1685341;84;26552;-81
2021/04/25 08:42:43;;;;;;;2.50;1.40;;;;;;;7.98;36.28;100746.79;1608000;87;25959;-79
2021/04/25 08:45:14;;;;;;;1.80;1.47;;;;;;;8.11;37.33;100738.70;1685198;83;25732;-79
2021/04/25 08:47:48;;;;;;;2.62;1.77;;;;;;;8.25;34.51;100741.83;1685507;83;25911;-78
2021/04/25 08:50:16;;;;;;;2.35;1.65;;;;;;;8.24;35.35;100737.11;1684235;83;25880;-77
2021/04/25 08:52:45;;;;;;;2.50;1.60;;;;;;;8.36;36.36;100737.75;1686220;83;25941;-80
2021/04/25 08:55:12;;;;;;;3.25;1.70;;;;;;;8.48;34.53;100740.55;1630137;86;25364;-79
2021/04/25 08:57:39;;;;;;;2.42;1.40;;;;;;;8.53;34.31;100737.52;1663526;84;25694;-79
2021/04/25 09:00:08;;;;;;;2.47;1.57;;;;;;;8.58;34.54;100730.11;1686531;83;25905;-77
2021/04/25 09:02:34;;;;;;;5.03;1.82;;;;;;;8.61;34.77;100734.55;1685486;83;25778;-78
2021/04/25 09:05:01;;;;;;;4.53;1.75;;;;;;;8.66;34.03;100727.61;1683914;83;25855;-79
2021/04/25 09:07:28;;;;;;;1.67;1.50;;;;;;;8.45;34.18;100730.41;1661728;83;25914;-78
2021/04/25 09:09:59;;;;;;;2.25;1.82;;;;;;;8.45;33.83;100733.02;1687653;83;25801;-78
2021/04/25 09:12:44;;;;;;;2.60;1.75;;;;;;;8.47;34.23;100725.89;1686048;83;25778;-78
2021/04/25 09:15:19;;;;;;;3.60;1.70;;;;;;;8.49;33.55;100733.58;1685121;83;25881;-78
2021/04/25 09:17:58;;;;;;;3.02;1.57;;;;;;;8.53;34.20;100725.31;1685154;83;25915;-78
2021/04/25 09:20:46;;;;;;;2.17;1.32;;;;;;;8.55;34.21;100722.58;1684638;83;25291;-79
2021/04/25 09:23:25;;;;;;;2.55;1.40;;;;;;;8.65;34.29;100717.67;1663012;83;25805;-78
2021/04/25 09:25:57;;;;;;;2.77;1.50;;;;;;;8.69;34.28;100716.89;1685648;83;26697;-78
2021/04/25 09:28:24;;;;;;;3.35;1.50;;;;;;;8.75;33.58;100720.70;1685879;83;26377;-78
2021/04/25 09:31:02;;;;;;;3.25;1.50;;;;;;;8.82;33.24;100707.45;1629931;86;26006;-78
2021/04/25 09:33:55;;;;;;;2.35;1.50;;;;;;;8.81;34.20;100697.52;1615855;87;25976;-78
2021/04/25 09:36:28;;;;;;;2.70;1.20;;;;;;;9.03;34.70;100707.17;1640901;85;25733;-78
2021/04/25 09:38:58;;;;;;;2.30;1.42;;;;;;;9.23;32.43;100700.89;1640456;85;25797;-78
2021/04/25 09:41:31;;;;;;;1.57;1.25;;;;;;;9.28;32.48;100700.45;1635942;85;26020;-80
2021/04/25 09:43:58;;;;;;;2.33;1.35;;;;;;;9.26;32.29;100694.56;1630329;86;25360;-78
2021/04/25 09:46:45;;;;;;;1.87;1.30;;;;;;;9.28;32.12;100692.14;1685249;83;26577;-78
2021/04/25 09:49:11;;;;;;;3.72;1.37;;;;;;;9.34;31.96;100691.54;1657629;83;25978;-79
2021/04/25 09:51:44;;;;;;;2.80;1.40;;;;;;;9.40;31.57;100695.83;1685388;83;25804;-79
2021/04/25 09:54:10;;;;;;;1.92;1.40;;;;;;;9.32;31.88;100693.47;1685028;83;26630;-79
2021/04/25 09:56:39;;;;;;;2.15;1.60;;;;;;;9.24;33.15;100693.88;1662649;84;25314;-80
2021/04/25 09:59:07;;;;;;;2.25;1.40;;;;;;;9.19;32.61;100693.50;1665911;83;25879;-80
2021/04/25 10:01:38;;;;;;;4.78;2.67;;;;;;;9.19;31.73;100693.50;1688804;83;25813;-80
2021/04/25 10:04:07;;;;;;;2.70;1.95;;;;;;;9.06;31.42;100696.48;1689784;83;25841;-79
2021/04/25 10:06:47;;;;;;;1.98;1.45;;;;;;;8.94;30.16;100701.05;1686409;82;25652;-79
2021/04/25 10:09:19;;;;;;;2.80;1.60;;;;;;;8.80;30.79;100699.77;1680382;82;25419;-80
2021/04/25 10:11:51;;;;;;;3.83;1.95;;;;;;;8.71;30.63;100692.01;1640646;85;25870;-79
2021/04/25 10:14:18;;;;;;;2.30;1.52;;;;;;;8.73;31.97;100700.02;1640238;85;25827;-82
2021/04/25 10:16:45;;;;;;;2.15;1.50;;;;;;;8.94;31.74;100692.42;1640633;84;26018;-81
2021/04/25 10:19:13;;;;;;;2.02;1.20;;;;;;;8.92;31.31;100693.89;1639966;85;25818;-79
2021/04/25 10:21:44;;;;;;;3.27;1.82;;;;;;;8.87;31.81;100686.50;1641315;85;25771;-80
2021/04/25 10:24:11;;;;;;;2.42;1.32;;;;;;;8.84;31.27;100693.31;1639728;85;26315;-79
2021/04/25 10:27:00;;;;;;;2.22;1.22;;;;;;;8.76;30.10;100689.30;1630533;86;25794;-80
2021/04/25 10:29:47;;;;;;;3.35;1.80;;;;;;;8.75;31.36;100694.16;1685382;83;25852;-79
2021/04/25 10:32:17;;;;;;;3.30;1.70;;;;;;;8.88;31.54;100697.73;1686671;83;25954;-80
2021/04/25 10:34:43;;;;;;;2.35;1.52;;;;;;;9.19;33.28;100684.37;1686391;83;25772;-78
2021/04/25 10:37:11;;;;;;;2.00;1.47;;;;;;;9.63;31.86;100682.67;1631582;86;34497;-79
2021/04/25 10:39:52;;;;;;;4.15;1.52;;;;;;;9.76;31.10;100686.98;1684981;83;25922;-79
2021/04/25 10:42:24;;;;;;;;;;;;;;;9.80;30.66;100686.22;1688722;83;25940;-78
2021/04/25 10:45:07;;;;;;;5.90;2.72;;;;;;;9.80;30.74;100685.41;1685133;83;25646;-78
2021/04/25 10:47:41;;;;;;;3.72;2.02;;;;;;;9.84;31.55;100691.45;1685709;83;25784;-78
2021/04/25 10:50:24;;;;;;;2.98;1.67;;;;;;;9.85;31.75;100697.49;1686607;83;25816;-77
2021/04/25 10:52:51;;;;;;;2.50;1.87;;;;;;;9.78;31.81;100692.08;1684173;83;25834;-79
2021/04/25 10:55:25;;;;;;;4.10;1.82;;;;;;;9.62;31.36;100695.37;1686032;83;26478;-78
2021/04/25 10:58:03;;;;;;;2.92;1.77;;;;;;;9.42;31.38;100701.73;1684760;83;25830;-78
2021/04/25 11:00:38;;;;;;;4.17;1.80;;;;;;;9.25;31.14;100719.02;1685506;83;25840;-78
2021/04/25 11:03:25;;;;;;;4.65;2.00;;;;;;;8.90;33.87;100721.87;1685660;83;25774;-78
2021/04/25 11:05:52;;;;;;;4.78;1.52;;;;;;;8.44;35.95;100733.50;1685600;83;25774;-78
2021/04/25 11:08:35;;;;;;;4.30;1.85;;;;;;;8.15;37.25;100732.23;1686326;83;26919;-78
2021/04/25 11:11:07;;;;;;;3.62;1.52;;;;;;;8.06;37.78;100733.08;1684561;84;25829;-78
2021/04/25 11:13:49;;;;;;;2.95;1.60;;;;;;;7.92;37.76;100743.93;1629864;86;25845;-78
2021/04/25 11:16:20;;;;;;;4.08;2.00;;;;;;;7.83;38.21;100735.17;1640820;85;25792;-78
2021/04/25 11:19:06;;;;;;;3.33;2.10;;;;;;;7.86;38.76;100739.28;1640937;85;25762;-78
2021/04/25 11:21:47;;;;;;;4.85;2.50;;;;;;;7.98;38.95;100741.58;1656908;83;25804;-78
2021/04/25 11:24:24;;;;;;;6.90;2.47;;;;;;;8.16;38.78;100747.41;1636139;84;25849;-77
2021/04/25 11:26:53;;;;;;;5.37;2.25;;;;;;;8.10;38.41;100747.94;1635029;84;25400;-78
2021/04/25 11:29:51;;;;;;;6.50;2.25;;;;;;;8.07;38.27;100746.91;1658985;84;25963;-78
2021/04/25 11:32:28;;;;;;;4.15;1.70;;;;;;;8.04;37.67;100757.12;1635195;84;25900;-78